Time,TemperatureF,DewpointF,PressureIn,WindDirection,WindDirectionDegrees,WindSpeedMPH,WindSpeedGustMPH,Humidity,HourlyPrecipIn,Conditions,Clouds,dailyrainin,SoftwareType,DateUTC
2013-03-09 00:00:00,29.0,26.0,-100.00,East,81,3.0,4.0,87,0.00,,,-99.99,,2013-03-09 07:00:00,
2013-03-09 00:31:00,29.0,26.0,-100.00,East,81,3.0,4.0,87,0.00,,,-99.99,,2013-03-09 07:31:00,
2013-03-09 00:41:00,29.0,26.0,-100.00,East,81,3.0,4.0,87,0.00,,,-99.99,,2013-03-09 07:41:00,
2013-03-09 00:52:00,29.0,26.0,-100.00,East,81,3.0,4.0,87,0.00,,,-99.99,,2013-03-09 07:52:00,
2013-03-09 01:00:00,29.0,26.0,-100.00,SW,220,1.0,2.0,89,0.00,,,-99.99,,2013-03-09 08:00:00,
2013-03-09 01:41:00,29.0,26.0,-100.00,SW,220,1.0,2.0,89,0.00,,,-99.99,,2013-03-09 08:41:00,
2013-03-09 01:52:00,29.0,26.0,-100.00,SW,220,1.0,2.0,89,0.00,,,-99.99,,2013-03-09 08:52:00,
2013-03-09 02:00:00,28.0,26.0,-100.00,WSW,241,3.0,3.0,91,0.00,,,-99.99,,2013-03-09 09:00:00,
2013-03-09 02:41:00,28.0,26.0,-100.00,WSW,241,3.0,3.0,91,0.00,,,-99.99,,2013-03-09 09:41:00,
2013-03-09 02:52:00,28.0,26.0,-100.00,WSW,241,3.0,3.0,91,0.00,,,-99.99,,2013-03-09 09:52:00,
2013-03-09 03:00:00,28.0,25.0,-100.00,NNW,330,1.0,1.0,88,0.00,,,-99.99,,2013-03-09 10:00:00,
2013-03-09 03:41:00,28.0,25.0,-100.00,NNW,330,1.0,1.0,88,0.00,,,-99.99,,2013-03-09 10:41:00,
2013-03-09 03:52:00,28.0,25.0,-100.00,NNW,330,1.0,1.0,88,0.00,,,-99.99,,2013-03-09 10:52:00,
2013-03-09 04:00:00,29.0,23.0,-100.00,ENE,60,5.0,7.0,79,0.00,,,-99.99,,2013-03-09 11:00:00,
2013-03-09 04:41:00,29.0,23.0,-100.00,ENE,60,5.0,7.0,79,0.00,,,-99.99,,2013-03-09 11:41:00,
2013-03-09 04:52:00,29.0,23.0,-100.00,ENE,60,5.0,7.0,79,0.00,,,-99.99,,2013-03-09 11:52:00,
2013-03-09 05:00:00,27.0,24.0,-100.00,NNE,21,2.0,3.0,88,0.01,,,0.00,,2013-03-09 12:00:00,
2013-03-09 05:42:00,27.0,24.0,-100.00,NNE,21,2.0,3.0,88,0.01,,,0.00,,2013-03-09 12:42:00,
2013-03-09 05:52:00,27.0,24.0,-100.00,NNE,21,2.0,3.0,88,0.01,,,0.00,,2013-03-09 12:52:00,
2013-03-09 06:00:00,27.0,25.0,-100.00,WSW,250,0.0,2.0,92,0.00,,,0.00,,2013-03-09 13:00:00,
2013-03-09 06:42:00,27.0,25.0,-100.00,WSW,250,0.0,2.0,92,0.00,,,0.00,,2013-03-09 13:42:00,
2013-03-09 06:52:00,27.0,25.0,-100.00,WSW,250,0.0,2.0,92,0.00,,,0.00,,2013-03-09 13:52:00,
2013-03-09 07:00:00,28.0,24.0,-100.00,SE,131,0.0,4.0,85,0.00,,,0.00,,2013-03-09 14:00:00,
2013-03-09 07:41:00,28.0,24.0,-100.00,SE,131,0.0,4.0,85,0.00,,,0.00,,2013-03-09 14:41:00,
2013-03-09 07:52:00,28.0,24.0,-100.00,SE,131,0.0,4.0,85,0.00,,,0.00,,2013-03-09 14:52:00,
2013-03-09 08:00:00,27.0,23.0,-100.00,ENE,66,1.0,3.0,86,0.00,,,0.00,,2013-03-09 15:00:00,
2013-03-09 08:42:00,27.0,23.0,-100.00,ENE,66,1.0,3.0,86,0.00,,,0.00,,2013-03-09 15:42:00,
2013-03-09 08:52:00,27.0,23.0,-100.00,ENE,66,1.0,3.0,86,0.00,,,0.00,,2013-03-09 15:52:00,
2013-03-09 09:00:00,27.0,21.0,-100.00,SSE,157,5.0,6.0,77,0.01,,,0.01,,2013-03-09 16:00:00,
2013-03-09 09:32:00,27.0,21.0,-100.00,SSE,157,5.0,6.0,77,0.01,,,0.01,,2013-03-09 16:32:00,
2013-03-09 09:41:00,27.0,21.0,-100.00,SSE,157,5.0,6.0,77,0.01,,,0.01,,2013-03-09 16:41:00,
2013-03-09 09:52:00,27.0,21.0,-100.00,SSE,157,5.0,6.0,77,0.01,,,0.01,,2013-03-09 16:52:00,
2013-03-09 10:00:00,27.0,18.0,-100.00,SE,134,3.0,7.0,67,0.00,,,0.01,,2013-03-09 17:00:00,
2013-03-09 10:42:00,27.0,18.0,-100.00,SE,134,3.0,7.0,67,0.00,,,0.01,,2013-03-09 17:42:00,
2013-03-09 10:52:00,27.0,18.0,-100.00,SE,134,3.0,7.0,67,0.00,,,0.01,,2013-03-09 17:52:00,
2013-03-09 11:00:00,30.0,21.0,-100.00,SE,140,2.0,3.0,68,0.00,,,0.01,,2013-03-09 18:00:00,
2013-03-09 11:31:00,30.0,21.0,-100.00,SE,140,2.0,3.0,68,0.00,,,0.01,,2013-03-09 18:31:00,
2013-03-09 11:42:00,30.0,21.0,-100.00,SE,140,2.0,3.0,68,0.00,,,0.01,,2013-03-09 18:42:00,
2013-03-09 11:52:00,30.0,21.0,-100.00,SE,140,2.0,3.0,68,0.00,,,0.01,,2013-03-09 18:52:00,
2013-03-09 12:00:00,28.0,15.0,-100.00,ENE,73,10.0,13.0,57,0.00,,,0.01,,2013-03-09 19:00:00,
2013-03-09 12:42:00,28.0,15.0,-100.00,ENE,73,10.0,13.0,57,0.00,,,0.01,,2013-03-09 19:42:00,
2013-03-09 12:52:00,28.0,15.0,-100.00,ENE,73,10.0,13.0,57,0.00,,,0.01,,2013-03-09 19:52:00,
2013-03-09 13:00:00,29.0,16.0,-100.00,ENE,78,6.0,8.0,58,0.00,,,0.01,,2013-03-09 20:00:00,
2013-03-09 13:42:00,29.0,16.0,-100.00,ENE,78,6.0,8.0,58,0.00,,,0.01,,2013-03-09 20:42:00,
2013-03-09 13:52:00,29.0,16.0,-100.00,ENE,78,6.0,8.0,58,0.00,,,0.01,,2013-03-09 20:52:00,
2013-03-09 14:00:00,29.0,16.0,-100.00,East,79,8.0,9.0,58,0.00,,,0.01,,2013-03-09 21:00:00,
2013-03-09 14:42:00,29.0,16.0,-100.00,East,79,8.0,9.0,58,0.00,,,0.01,,2013-03-09 21:42:00,
2013-03-09 14:52:00,29.0,16.0,-100.00,East,79,8.0,9.0,58,0.00,,,0.01,,2013-03-09 21:52:00,
2013-03-09 15:00:00,31.0,16.0,-100.00,SSE,151,2.0,4.0,53,0.00,,,0.01,,2013-03-09 22:00:00,
2013-03-09 15:41:00,31.0,16.0,-100.00,SSE,151,2.0,4.0,53,0.00,,,0.01,,2013-03-09 22:41:00,
2013-03-09 15:52:00,31.0,16.0,-100.00,SSE,151,2.0,4.0,53,0.00,,,0.01,,2013-03-09 22:52:00,
2013-03-09 16:00:00,33.0,15.0,-100.00,SE,133,3.0,6.0,47,0.00,,,0.01,,2013-03-09 23:00:00,
2013-03-09 16:41:00,33.0,15.0,-100.00,SE,133,3.0,6.0,47,0.00,,,0.01,,2013-03-09 23:41:00,
2013-03-09 16:52:00,33.0,15.0,-100.00,SE,133,3.0,6.0,47,0.00,,,0.01,,2013-03-09 23:52:00,
2013-03-09 17:00:00,30.0,12.0,-100.00,East,93,7.0,10.0,46,0.00,,,0.01,,2013-03-10 00:00:00,
2013-03-09 17:42:00,30.0,12.0,-100.00,East,93,7.0,10.0,46,0.00,,,0.01,,2013-03-10 00:42:00,
2013-03-09 17:52:00,30.0,12.0,-100.00,East,93,7.0,10.0,46,0.00,,,0.01,,2013-03-10 00:52:00,
2013-03-09 18:00:00,28.0,12.0,-100.00,NNE,30,5.0,7.0,51,0.00,,,-99.99,,2013-03-10 01:00:00,
2013-03-09 18:31:00,28.0,12.0,-100.00,NNE,30,5.0,7.0,51,0.00,,,-99.99,,2013-03-10 01:31:00,
2013-03-09 18:41:00,28.0,12.0,-100.00,NNE,30,5.0,7.0,51,0.00,,,-99.99,,2013-03-10 01:41:00,
2013-03-09 18:52:00,28.0,12.0,-100.00,NNE,30,5.0,7.0,51,0.00,,,-99.99,,2013-03-10 01:52:00,
2013-03-09 19:00:00,27.0,12.0,-100.00,NE,43,1.0,2.0,53,0.00,,,0.01,,2013-03-10 02:00:00,
2013-03-09 19:42:00,27.0,12.0,-100.00,NE,43,1.0,2.0,53,0.00,,,0.01,,2013-03-10 02:42:00,
2013-03-09 19:52:00,27.0,12.0,-100.00,NE,43,1.0,2.0,53,0.00,,,0.01,,2013-03-10 02:52:00,
2013-03-09 20:00:00,26.0,11.0,-100.00,South,182,3.0,4.0,53,0.00,,,0.01,,2013-03-10 03:00:00,
2013-03-09 20:42:00,26.0,11.0,-100.00,South,182,3.0,4.0,53,0.00,,,0.01,,2013-03-10 03:42:00,
2013-03-09 20:52:00,26.0,11.0,-100.00,South,182,3.0,4.0,53,0.00,,,0.01,,2013-03-10 03:52:00,
2013-03-09 21:00:00,25.0,13.0,-100.00,WSW,242,5.0,5.0,60,0.00,,,0.01,,2013-03-10 04:00:00,
2013-03-09 21:31:00,25.0,13.0,-100.00,WSW,242,5.0,5.0,60,0.00,,,0.01,,2013-03-10 04:31:00,
2013-03-09 21:41:00,25.0,13.0,-100.00,WSW,242,5.0,5.0,60,0.00,,,0.01,,2013-03-10 04:41:00,
2013-03-09 21:52:00,25.0,13.0,-100.00,WSW,242,5.0,5.0,60,0.00,,,0.01,,2013-03-10 04:52:00,
2013-03-09 22:00:00,26.0,12.0,-100.00,West,280,5.0,5.0,54,0.00,,,0.01,,2013-03-10 05:00:00,
2013-03-09 22:42:00,26.0,12.0,-100.00,West,280,5.0,5.0,54,0.00,,,0.01,,2013-03-10 05:42:00,
2013-03-09 22:52:00,26.0,12.0,-100.00,West,280,5.0,5.0,54,0.00,,,0.01,,2013-03-10 05:52:00,
2013-03-09 23:00:00,22.0,10.0,-100.00,SW,217,4.0,8.0,58,0.00,,,0.02,,2013-03-10 06:00:00,
2013-03-09 23:32:00,22.0,10.0,-100.00,SW,217,4.0,8.0,58,0.00,,,0.02,,2013-03-10 06:32:00,
2013-03-09 23:42:00,22.0,10.0,-100.00,SW,217,4.0,8.0,58,0.00,,,0.02,,2013-03-10 06:42:00,
2013-03-09 23:52:00,22.0,10.0,-100.00,SW,217,4.0,8.0,58,0.00,,,0.02,,2013-03-10 06:52:00,